Time,TemperatureF,DewpointF,PressureIn,WindDirection,WindDirectionDegrees,WindSpeedMPH,WindSpeedGustMPH,Humidity,HourlyPrecipIn,Conditions,Clouds,dailyrainin,SoftwareType,DateUTC
2013-06-28 00:02:00,53.0,33.0,30.04,SE,131,0.0,-999.0,46,-99.99,,,-99.99,,2013-06-28 06:02:00,
2013-06-28 00:12:00,53.0,33.0,30.03,SE,131,0.0,-999.0,47,-99.99,,,-99.99,,2013-06-28 06:12:00,
2013-06-28 00:22:00,53.0,33.0,30.03,SE,131,0.0,-999.0,47,-99.99,,,-99.99,,2013-06-28 06:22:00,
2013-06-28 00:33:00,52.0,34.0,30.04,SE,131,0.0,-999.0,50,-99.99,,,-99.99,,2013-06-28 06:33:00,
2013-06-28 00:42:00,51.0,34.0,30.04,SE,130,0.0,-999.0,51,-99.99,,,-99.99,,2013-06-28 06:42:00,
2013-06-28 00:52:00,51.0,34.0,30.04,SE,130,0.0,-999.0,51,-99.99,,,-99.99,,2013-06-28 06:52:00,
2013-06-28 01:01:00,50.0,33.0,30.04,SE,131,0.0,-999.0,52,-99.99,,,-99.99,,2013-06-28 07:01:00,
2013-06-28 01:11:00,49.0,33.0,30.03,SE,131,0.0,-999.0,53,-99.99,,,-99.99,,2013-06-28 07:11:00,
2013-06-28 01:22:00,49.0,33.0,30.03,SE,131,0.0,-999.0,53,-99.99,,,-99.99,,2013-06-28 07:22:00,
2013-06-28 01:33:00,49.0,34.0,30.04,SE,131,0.0,-999.0,55,-99.99,,,-99.99,,2013-06-28 07:33:00,
2013-06-28 01:42:00,48.0,33.0,30.04,SE,131,0.0,-999.0,56,-99.99,,,-99.99,,2013-06-28 07:42:00,
2013-06-28 01:52:00,48.0,33.0,30.04,SE,131,0.0,-999.0,56,-99.99,,,-99.99,,2013-06-28 07:52:00,
2013-06-28 02:01:00,47.0,33.0,30.04,SE,131,0.0,-999.0,57,-99.99,,,-99.99,,2013-06-28 08:01:00,
2013-06-28 02:11:00,46.0,33.0,30.05,SE,131,0.0,-999.0,60,-99.99,,,-99.99,,2013-06-28 08:11:00,
2013-06-28 02:21:00,46.0,33.0,30.05,SE,131,0.0,-999.0,60,-99.99,,,-99.99,,2013-06-28 08:21:00,
2013-06-28 02:33:00,46.0,33.0,30.05,SE,131,0.0,-999.0,60,-99.99,,,-99.99,,2013-06-28 08:33:00,
2013-06-28 02:43:00,45.0,32.0,30.05,SE,131,0.0,-999.0,60,-99.99,,,-99.99,,2013-06-28 08:43:00,
2013-06-28 02:52:00,45.0,32.0,30.05,SE,131,0.0,-999.0,60,-99.99,,,-99.99,,2013-06-28 08:52:00,
2013-06-28 03:02:00,45.0,32.0,30.04,SE,131,0.0,-999.0,61,-99.99,,,-99.99,,2013-06-28 09:02:00,
2013-06-28 03:11:00,44.0,32.0,30.04,SE,131,0.0,-999.0,63,-99.99,,,-99.99,,2013-06-28 09:11:00,
2013-06-28 03:22:00,44.0,32.0,30.04,SE,131,0.0,-999.0,63,-99.99,,,-99.99,,2013-06-28 09:22:00,
2013-06-28 03:33:00,43.0,32.0,30.04,SE,131,0.0,-999.0,64,-99.99,,,-99.99,,2013-06-28 09:33:00,
2013-06-28 03:42:00,43.0,32.0,30.04,SE,131,0.0,-999.0,65,-99.99,,,-99.99,,2013-06-28 09:42:00,
2013-06-28 03:52:00,43.0,32.0,30.04,SE,131,0.0,-999.0,65,-99.99,,,-99.99,,2013-06-28 09:52:00,
2013-06-28 04:02:00,42.0,31.0,30.03,SE,130,0.0,-999.0,66,-99.99,,,-99.99,,2013-06-28 10:02:00,
2013-06-28 04:11:00,42.0,32.0,30.03,SE,131,0.0,-999.0,68,-99.99,,,-99.99,,2013-06-28 10:11:00,
2013-06-28 04:22:00,42.0,32.0,30.03,SE,131,0.0,-999.0,68,-99.99,,,-99.99,,2013-06-28 10:22:00,
2013-06-28 05:02:00,41.0,33.0,30.02,SE,131,0.0,-999.0,73,-99.99,,,-99.99,,2013-06-28 11:02:00,
2013-06-28 05:11:00,41.0,33.0,30.01,SE,130,0.0,-999.0,72,-99.99,,,-99.99,,2013-06-28 11:11:00,
2013-06-28 05:22:00,41.0,33.0,30.01,SE,130,0.0,-999.0,72,-99.99,,,-99.99,,2013-06-28 11:22:00,
2013-06-28 05:34:00,41.0,33.0,30.02,SE,131,0.0,-999.0,72,-99.99,,,-99.99,,2013-06-28 11:34:00,
2013-06-28 06:02:00,40.0,32.0,30.03,SE,131,0.0,-999.0,73,-99.99,,,-99.99,,2013-06-28 12:02:00,
2013-06-28 06:12:00,40.0,32.0,30.03,SE,131,0.0,-999.0,74,-99.99,,,-99.99,,2013-06-28 12:12:00,
2013-06-28 06:22:00,40.0,32.0,30.03,SE,131,0.0,-999.0,74,-99.99,,,-99.99,,2013-06-28 12:22:00,
2013-06-28 06:33:00,40.0,33.0,30.04,SE,131,0.0,-999.0,76,-99.99,,,-99.99,,2013-06-28 12:33:00,
2013-06-28 06:43:00,40.0,33.0,30.04,SE,131,0.0,-999.0,76,-99.99,,,-99.99,,2013-06-28 12:43:00,
2013-06-28 06:52:00,40.0,33.0,30.04,SE,131,0.0,-999.0,76,-99.99,,,-99.99,,2013-06-28 12:52:00,
2013-06-28 07:01:00,41.0,34.0,30.04,SE,131,0.0,-999.0,76,-99.99,,,-99.99,,2013-06-28 13:01:00,
2013-06-28 07:11:00,42.0,35.0,30.04,SE,131,0.0,-999.0,76,-99.99,,,-99.99,,2013-06-28 13:11:00,
2013-06-28 07:23:00,42.0,35.0,30.04,SE,131,0.0,-999.0,76,-99.99,,,-99.99,,2013-06-28 13:23:00,
2013-06-28 07:33:00,44.0,37.0,30.03,SE,131,0.0,-999.0,76,-99.99,,,-99.99,,2013-06-28 13:33:00,
2013-06-28 07:43:00,46.0,39.0,30.03,SE,131,0.0,-999.0,76,-99.99,,,-99.99,,2013-06-28 13:43:00,
2013-06-28 07:53:00,46.0,39.0,30.03,SE,131,0.0,-999.0,76,-99.99,,,-99.99,,2013-06-28 13:53:00,
2013-06-28 08:02:00,49.0,41.0,30.03,SE,130,0.0,-999.0,74,-99.99,,,-99.99,,2013-06-28 14:02:00,
2013-06-28 08:11:00,52.0,41.0,30.03,SE,131,0.0,-999.0,65,-99.99,,,-99.99,,2013-06-28 14:11:00,
2013-06-28 08:33:00,56.0,41.0,30.02,SE,134,0.0,-999.0,56,-99.99,,,-99.99,,2013-06-28 14:33:00,
2013-06-28 08:44:00,60.0,41.0,30.03,SE,135,0.0,-999.0,50,-99.99,,,-99.99,,2013-06-28 14:44:00,
2013-06-28 08:53:00,60.0,41.0,30.03,SE,135,0.0,-999.0,50,-99.99,,,-99.99,,2013-06-28 14:53:00,
2013-06-28 09:02:00,63.0,38.0,30.02,SE,136,0.0,-999.0,40,-99.99,,,-99.99,,2013-06-28 15:02:00,
2013-06-28 09:11:00,65.0,39.0,30.01,WSW,250,0.0,-999.0,39,-99.99,,,-99.99,,2013-06-28 15:11:00,
2013-06-28 09:24:00,65.0,39.0,30.01,WSW,250,0.0,-999.0,39,-99.99,,,-99.99,,2013-06-28 15:24:00,
2013-06-28 09:34:00,67.0,37.0,30.01,West,281,0.0,-999.0,33,-99.99,,,-99.99,,2013-06-28 15:34:00,
2013-06-28 09:43:00,69.0,35.0,30.01,NW,317,1.0,-999.0,28,-99.99,,,-99.99,,2013-06-28 15:43:00,
2013-06-28 09:52:00,69.0,35.0,30.01,NW,317,1.0,-999.0,28,-99.99,,,-99.99,,2013-06-28 15:52:00,
2013-06-28 10:01:00,71.0,39.0,30.01,WNW,296,1.0,-999.0,31,-99.99,,,-99.99,,2013-06-28 16:01:00,
2013-06-28 10:11:00,71.0,39.0,29.99,WSW,258,1.0,-999.0,31,-99.99,,,-99.99,,2013-06-28 16:11:00,
2013-06-28 10:24:00,71.0,39.0,29.99,WSW,258,1.0,-999.0,31,-99.99,,,-99.99,,2013-06-28 16:24:00,
2013-06-28 10:33:00,72.0,36.0,30.00,SW,229,1.0,-999.0,27,-99.99,,,-99.99,,2013-06-28 16:33:00,
2013-06-28 10:44:00,72.0,37.0,30.00,West,263,1.0,-999.0,28,-99.99,,,-99.99,,2013-06-28 16:44:00,
2013-06-28 10:53:00,72.0,37.0,30.00,West,263,1.0,-999.0,28,-99.99,,,-99.99,,2013-06-28 16:53:00,
2013-06-28 11:02:00,72.0,35.0,30.00,WNW,292,1.0,-999.0,26,-99.99,,,-99.99,,2013-06-28 17:02:00,
2013-06-28 11:11:00,73.0,30.0,30.00,West,266,1.0,-999.0,20,-99.99,,,-99.99,,2013-06-28 17:11:00,
2013-06-28 11:22:00,73.0,30.0,30.00,West,266,1.0,-999.0,20,-99.99,,,-99.99,,2013-06-28 17:22:00,
2013-06-28 11:33:00,74.0,29.0,30.00,East,100,2.0,-999.0,19,-99.99,,,-99.99,,2013-06-28 17:33:00,
2013-06-28 11:44:00,75.0,30.0,30.00,SW,215,2.0,-999.0,19,-99.99,,,-99.99,,2013-06-28 17:44:00,
2013-06-28 11:52:00,75.0,30.0,30.00,SW,215,2.0,-999.0,19,-99.99,,,-99.99,,2013-06-28 17:52:00,
2013-06-28 12:02:00,75.0,24.0,30.01,WNW,288,2.0,-999.0,15,-99.99,,,-99.99,,2013-06-28 18:02:00,
2013-06-28 12:11:00,75.0,27.0,30.01,West,279,2.0,-999.0,17,-99.99,,,-99.99,,2013-06-28 18:11:00,
2013-06-28 12:22:00,75.0,27.0,30.01,West,279,2.0,-999.0,17,-99.99,,,-99.99,,2013-06-28 18:22:00,
2013-06-28 12:33:00,77.0,29.0,30.00,WSW,252,2.0,-999.0,17,-99.99,,,-99.99,,2013-06-28 18:33:00,
2013-06-28 12:43:00,77.0,29.0,29.99,WSW,251,2.0,-999.0,17,-99.99,,,-99.99,,2013-06-28 18:43:00,
2013-06-28 12:52:00,77.0,29.0,29.99,WSW,251,2.0,-999.0,17,-99.99,,,-99.99,,2013-06-28 18:52:00,
2013-06-28 13:01:00,75.0,29.0,29.98,WSW,246,1.0,-999.0,18,-99.99,,,-99.99,,2013-06-28 19:01:00,
2013-06-28 13:11:00,73.0,30.0,29.98,WSW,256,1.0,-999.0,20,-99.99,,,-99.99,,2013-06-28 19:11:00,
2013-06-28 13:22:00,73.0,30.0,29.98,WSW,256,1.0,-999.0,20,-99.99,,,-99.99,,2013-06-28 19:22:00,
2013-06-28 13:33:00,73.0,31.0,29.98,West,261,1.0,-999.0,21,-99.99,,,-99.99,,2013-06-28 19:33:00,
2013-06-28 13:43:00,74.0,32.0,29.97,SSE,168,1.0,-999.0,21,-99.99,,,-99.99,,2013-06-28 19:43:00,
2013-06-28 13:53:00,74.0,32.0,29.97,SSE,168,1.0,-999.0,21,-99.99,,,-99.99,,2013-06-28 19:53:00,
2013-06-28 14:02:00,75.0,31.0,29.97,SSW,209,1.0,-999.0,20,-99.99,,,-99.99,,2013-06-28 20:02:00,
2013-06-28 14:11:00,74.0,33.0,29.97,WSW,245,1.0,-999.0,22,-99.99,,,-99.99,,2013-06-28 20:11:00,
2013-06-28 14:22:00,74.0,33.0,29.97,WSW,245,1.0,-999.0,22,-99.99,,,-99.99,,2013-06-28 20:22:00,
2013-06-28 14:33:00,74.0,33.0,29.96,SSE,148,0.0,-999.0,22,-99.99,,,-99.99,,2013-06-28 20:33:00,
2013-06-28 14:43:00,75.0,32.0,29.95,SSW,195,0.0,-999.0,21,-99.99,,,-99.99,,2013-06-28 20:43:00,
2013-06-28 14:52:00,75.0,32.0,29.95,SSW,195,0.0,-999.0,21,-99.99,,,-99.99,,2013-06-28 20:52:00,
2013-06-28 15:01:00,77.0,33.0,29.95,South,175,2.0,-999.0,20,-99.99,,,-99.99,,2013-06-28 21:01:00,
2013-06-28 15:11:00,76.0,32.0,29.93,SE,127,1.0,-999.0,20,-99.99,,,-99.99,,2013-06-28 21:11:00,
2013-06-28 15:23:00,76.0,32.0,29.93,SE,127,1.0,-999.0,20,-99.99,,,-99.99,,2013-06-28 21:23:00,
2013-06-28 15:34:00,76.0,32.0,29.93,East,96,1.0,-999.0,20,-99.99,,,-99.99,,2013-06-28 21:34:00,
2013-06-28 15:43:00,76.0,32.0,29.93,WSW,255,2.0,-999.0,20,-99.99,,,-99.99,,2013-06-28 21:43:00,
2013-06-28 15:53:00,76.0,32.0,29.93,WSW,255,2.0,-999.0,20,-99.99,,,-99.99,,2013-06-28 21:53:00,
2013-06-28 16:01:00,75.0,32.0,29.93,SW,234,2.0,-999.0,21,-99.99,,,-99.99,,2013-06-28 22:01:00,
2013-06-28 16:11:00,73.0,28.0,29.93,SW,214,1.0,-999.0,19,-99.99,,,-99.99,,2013-06-28 22:11:00,
2013-06-28 16:22:00,73.0,28.0,29.93,SW,214,1.0,-999.0,19,-99.99,,,-99.99,,2013-06-28 22:22:00,
2013-06-28 16:34:00,73.0,32.0,29.93,East,96,1.0,-999.0,22,-99.99,,,-99.99,,2013-06-28 22:34:00,
2013-06-28 16:43:00,74.0,32.0,29.93,NE,50,2.0,-999.0,21,-99.99,,,-99.99,,2013-06-28 22:43:00,
2013-06-28 16:52:00,74.0,32.0,29.93,NE,50,2.0,-999.0,21,-99.99,,,-99.99,,2013-06-28 22:52:00,
2013-06-28 17:01:00,76.0,31.0,29.94,SE,143,2.0,-999.0,19,-99.99,,,-99.99,,2013-06-28 23:01:00,
2013-06-28 17:11:00,75.0,31.0,29.93,WSW,252,2.0,-999.0,20,-99.99,,,-99.99,,2013-06-28 23:11:00,
2013-06-28 17:23:00,75.0,31.0,29.93,WSW,252,2.0,-999.0,20,-99.99,,,-99.99,,2013-06-28 23:23:00,
2013-06-28 17:34:00,74.0,30.0,29.94,SW,231,1.0,-999.0,20,-99.99,,,-99.99,,2013-06-28 23:34:00,
2013-06-28 17:43:00,73.0,32.0,29.93,West,276,1.0,-999.0,22,-99.99,,,-99.99,,2013-06-28 23:43:00,
2013-06-28 17:53:00,73.0,32.0,29.93,West,276,1.0,-999.0,22,-99.99,,,-99.99,,2013-06-28 23:53:00,
2013-06-28 18:02:00,73.0,33.0,29.92,SSW,212,1.0,-999.0,23,-99.99,,,-99.99,,2013-06-29 00:02:00,
2013-06-28 18:11:00,73.0,33.0,29.92,West,279,1.0,-999.0,23,-99.99,,,-99.99,,2013-06-29 00:11:00,
2013-06-28 18:22:00,73.0,33.0,29.92,West,279,1.0,-999.0,23,-99.99,,,-99.99,,2013-06-29 00:22:00,
2013-06-28 19:42:00,71.0,38.0,29.93,SE,130,1.0,-999.0,30,-99.99,,,-99.99,,2013-06-29 01:42:00,
2013-06-28 19:52:00,71.0,38.0,29.93,SE,130,1.0,-999.0,30,-99.99,,,-99.99,,2013-06-29 01:52:00,
2013-06-28 20:01:00,71.0,38.0,29.93,SE,130,1.0,-999.0,30,-99.99,,,-99.99,,2013-06-29 02:01:00,
2013-06-28 20:11:00,71.0,38.0,29.93,SE,130,1.0,-999.0,30,-99.99,,,-99.99,,2013-06-29 02:11:00,
2013-06-28 20:21:00,71.0,38.0,29.93,SE,130,1.0,-999.0,30,-99.99,,,-99.99,,2013-06-29 02:21:00,
2013-06-28 23:01:00,54.0,36.0,29.99,NNE,15,0.0,-999.0,51,-99.99,,,-99.99,,2013-06-29 05:01:00,
2013-06-28 23:10:00,54.0,36.0,29.99,NNE,15,0.0,-999.0,51,-99.99,,,-99.99,,2013-06-29 05:10:00,
2013-06-28 23:21:00,54.0,36.0,29.99,NNE,15,0.0,-999.0,51,-99.99,,,-99.99,,2013-06-29 05:21:00,
2013-06-28 23:31:00,54.0,36.0,29.99,NNE,15,0.0,-999.0,51,-99.99,,,-99.99,,2013-06-29 05:31:00,
2013-06-28 23:41:00,50.0,35.0,30.01,NNE,15,0.0,-999.0,56,-99.99,,,-99.99,,2013-06-29 05:41:00,
2013-06-28 23:52:00,50.0,35.0,30.01,NNE,15,0.0,-999.0,56,-99.99,,,-99.99,,2013-06-29 05:52:00,